Terminal Aerodrome Forecast
Issued by NWS

Home | Current Version | Previous Version | Text Only | Print | Product List | Glossary On
Versions: 1 2 3 4 5 6 7 8 9 10 11 12 13 14 15 16 17 18 19 20 21 22 23 24 25 26 27
000
FTUS41 KOKX 241100 RRA
TAFGON
TAF
KGON 241154Z 2412/2512 16023G34KT 2SM RA BR OVC006 WS020/19065KT
     FM241500 18021G32KT 3SM -SHRA BR OVC010 WS020/20050KT
     FM241800 19018G31KT 5SM BR SCT010 OVC020
     FM250000 21014G23KT 3SM BR SCT010 OVC020
     FM250600 23008KT 3SM BR OVC015
     FM250900 24007KT P6SM SCT020 BKN250=

USA.gov is the U.S. government's official web portal to all federal, state and local government web resources and services.